Airport Name : Saiss

Other Name : Fes

ICAO : GMFF

IATA : FEZ

FAA :

Latitude : 33.927261

Longitude : -4.977958

Country : Morocco

Local Date and Time : 30 Jan 2023 22:49

 

TAF (Terminal Aerodrome Forecast)

TAF GMFF 301700Z 3018/3124 25008KT 9999 BKN026 FEW033CB BECMG 3020/3023 18005KT CAVOK

 

METAR (METeorological Aerodrome Report)

GMFF 302130Z 15005KT 9999 FEW026 SCT100 08/00 Q1024 NOSIG

GMFF 302100Z 11006KT 9999 FEW026 SCT100 07/02 Q1024 NOSIG

GMFF 302030Z 08007KT 9999 SCT026 SCT100 08/02 Q1024 NOSIG

GMFF 302000Z 13004KT 040V180 9999 SCT026 SCT100 06/02 Q1024 NOSIG

GMFF 301930Z 12003KT 9999 SCT026 FEW033CB SCT100 08/02 Q1023 NOSIG

GMFF 301900Z 12005KT 110V210 9999 SCT026 FEW033CB SCT100 07/02 Q1023 NOSIG

GMFF 301830Z 12005KT 9999 BKN026 FEW033CB 08/02 Q1023 NOSIG

GMFF 301800Z VRB02KT 9999 BKN026 FEW033CB 10/02 Q1023 NOSIG

To Charter a Jet Click here.